Time;durP1;ratioP1;P1;durP2;ratioP2;P2;SDS_P1;SDS_P2;PMS_P1;PMS_P2;Temp;Humidity;BMP_temperature;BMP_pressure;BME280_temperature;BME280_humidity;BME280_pressure;Samples;Min_cycle;Max_cycle;Signal;HPM_P1;HPM_P2
2022/06/23 00:01:22;;;;;;;14.17;8.17;;;;;;;;;;4992559;28;20078;-62
2022/06/23 00:03:48;;;;;;;12.17;8.33;;;;;;;;;;4992574;28;20624;-62
2022/06/23 00:06:43;;;;;;;18.80;9.20;;;;;;;;;;4991981;28;20042;-62
2022/06/23 00:09:39;;;;;;;16.03;9.63;;;;;;;;;;4971545;28;20390;-62
2022/06/23 00:12:26;;;;;;;15.97;8.30;;;;;;;;;;4971588;28;20058;-61
2022/06/23 00:15:12;;;;;;;16.77;8.43;;;;;;;;;;4992437;28;20049;-62
2022/06/23 00:17:40;;;;;;;16.80;9.03;;;;;;;;;;4974749;28;20051;-62
2022/06/23 00:20:17;;;;;;;14.83;8.23;;;;;;;;;;4992107;28;20058;-62
2022/06/23 00:22:46;;;;;;;14.53;8.63;;;;;;;;;;4992110;28;20062;-63
2022/06/23 00:25:29;;;;;;;15.37;8.77;;;;;;;;;;4992034;28;20046;-62
2022/06/23 00:27:56;;;;;;;14.25;8.98;;;;;;;;;;4992097;28;20042;-63
2022/06/23 00:30:30;;;;;;;15.63;9.40;;;;;;;;;;4992307;28;20046;-63
2022/06/23 00:32:56;;;;;;;16.93;9.83;;;;;;;;;;4992081;28;20207;-62
2022/06/23 00:35:22;;;;;;;13.13;9.10;;;;;;;;;;4991771;28;20084;-62
2022/06/23 00:37:49;;;;;;;17.33;9.90;;;;;;;;;;4990801;28;20492;-62
2022/06/23 00:40:18;;;;;;;13.77;9.23;;;;;;;;;;4990143;28;20045;-62
2022/06/23 00:42:53;;;;;;;18.70;9.97;;;;;;;;;;4990349;28;20093;-62
2022/06/23 00:45:26;;;;;;;21.10;9.80;;;;;;;;;;4990679;28;20118;-62
2022/06/23 00:48:03;;;;;;;17.83;10.35;;;;;;;;;;4988545;28;20125;-63
2022/06/23 00:50:38;;;;;;;15.40;9.40;;;;;;;;;;4987817;28;20043;-62
2022/06/23 00:53:15;;;;;;;21.00;10.23;;;;;;;;;;4989790;28;20134;-62
2022/06/23 00:55:50;;;;;;;20.20;11.03;;;;;;;;;;4990608;28;20046;-62
2022/06/23 00:58:42;;;;;;;16.27;9.43;;;;;;;;;;4988834;28;20537;-62
2022/06/23 01:01:14;;;;;;;16.70;9.83;;;;;;;;;;4988021;28;20082;-62
2022/06/23 01:03:46;;;;;;;21.50;10.40;;;;;;;;;;4990244;28;20100;-62
2022/06/23 01:06:12;;;;;;;20.97;11.07;;;;;;;;;;4987804;28;20054;-62
2022/06/23 01:08:44;;;;;;;20.03;10.70;;;;;;;;;;4989967;28;20530;-62
2022/06/23 01:11:18;;;;;;;22.47;11.87;;;;;;;;;;4986807;28;20401;-62
2022/06/23 01:13:56;;;;;;;19.03;10.93;;;;;;;;;;4989885;28;20066;-62
2022/06/23 01:16:25;;;;;;;21.93;11.70;;;;;;;;;;4989866;28;20058;-62
2022/06/23 01:19:00;;;;;;;23.70;12.17;;;;;;;;;;4987600;28;20046;-62
2022/06/23 01:21:32;;;;;;;25.40;12.37;;;;;;;;;;4986555;28;20842;-62
2022/06/23 01:24:06;;;;;;;21.90;11.30;;;;;;;;;;4985402;28;20038;-62
2022/06/23 01:26:56;;;;;;;18.83;10.53;;;;;;;;;;4983421;28;20039;-62
2022/06/23 01:29:40;;;;;;;22.00;11.87;;;;;;;;;;4987024;28;20062;-62
2022/06/23 01:32:11;;;;;;;21.83;11.53;;;;;;;;;;4990852;28;20064;-62
2022/06/23 01:34:38;;;;;;;23.73;13.20;;;;;;;;;;4991086;28;20069;-62
2022/06/23 01:37:10;;;;;;;21.20;12.13;;;;;;;;;;4990952;28;20137;-62
2022/06/23 01:39:43;;;;;;;25.27;12.37;;;;;;;;;;4991214;28;20050;-62
2022/06/23 01:42:25;;;;;;;25.88;13.75;;;;;;;;;;4990448;28;20042;-62
2022/06/23 01:44:57;;;;;;;28.37;13.57;;;;;;;;;;4991088;28;20064;-62
2022/06/23 01:47:27;;;;;;;28.53;13.37;;;;;;;;;;4990742;28;20100;-62
2022/06/23 01:49:56;;;;;;;28.80;13.17;;;;;;;;;;4990670;28;20053;-61
2022/06/23 01:52:22;;;;;;;28.23;13.13;;;;;;;;;;4990475;28;20070;-62
2022/06/23 01:54:52;;;;;;;26.90;14.17;;;;;;;;;;4973505;28;20072;-62
2022/06/23 01:57:34;;;;;;;24.90;13.37;;;;;;;;;;4986898;28;20160;-62
2022/06/23 02:00:00;;;;;;;26.30;12.57;;;;;;;;;;4981858;28;20126;-62
2022/06/23 02:02:32;;;;;;;22.07;12.53;;;;;;;;;;4983678;28;20576;-62
2022/06/23 02:05:11;;;;;;;29.80;14.03;;;;;;;;;;4985268;28;20488;-62
2022/06/23 02:07:40;;;;;;;24.10;12.53;;;;;;;;;;4983037;28;20054;-62
2022/06/23 02:10:06;;;;;;;29.43;14.17;;;;;;;;;;4985222;28;20050;-62
2022/06/23 02:12:41;;;;;;;28.53;13.83;;;;;;;;;;4984327;28;20516;-62
2022/06/23 02:15:11;;;;;;;27.80;13.57;;;;;;;;;;4984230;28;20046;-62
2022/06/23 02:17:37;;;;;;;37.50;16.20;;;;;;;;;;4984034;28;20669;-62
2022/06/23 02:20:14;;;;;;;31.70;15.03;;;;;;;;;;4985018;28;20046;-62
2022/06/23 02:22:43;;;;;;;29.43;14.53;;;;;;;;;;4983257;28;20047;-62
2022/06/23 02:25:23;;;;;;;31.93;14.40;;;;;;;;;;4984782;28;20880;-62
2022/06/23 02:27:56;;;;;;;31.63;15.20;;;;;;;;;;4986360;28;20339;-62
2022/06/23 02:30:55;;;;;;;33.13;15.60;;;;;;;;;;4983443;28;20401;-63
2022/06/23 02:33:26;;;;;;;28.63;13.57;;;;;;;;;;4953169;28;20038;-62
2022/06/23 02:35:58;;;;;;;32.70;15.63;;;;;;;;;;4984843;28;20113;-62
2022/06/23 02:38:36;;;;;;;25.67;13.13;;;;;;;;;;4984586;28;20137;-62
2022/06/23 02:41:02;;;;;;;35.10;16.03;;;;;;;;;;4981980;28;20047;-62
2022/06/23 02:43:38;;;;;;;39.23;16.07;;;;;;;;;;4983224;28;20563;-62
2022/06/23 02:46:10;;;;;;;28.40;14.27;;;;;;;;;;4984499;28;20051;-62
2022/06/23 02:48:51;;;;;;;35.97;15.97;;;;;;;;;;4982549;28;20045;-61
2022/06/23 02:51:20;;;;;;;32.87;15.33;;;;;;;;;;4982117;28;20053;-61
2022/06/23 02:53:55;;;;;;;36.83;16.97;;;;;;;;;;4981882;28;20505;-62
2022/06/23 02:56:44;;;;;;;36.33;14.60;;;;;;;;;;4981413;28;20066;-62
2022/06/23 02:59:13;;;;;;;37.03;15.93;;;;;;;;;;4982803;28;20073;-62
2022/06/23 03:01:45;;;;;;;34.83;15.73;;;;;;;;;;4984189;28;20452;-62
2022/06/23 03:04:23;;;;;;;39.97;17.10;;;;;;;;;;4984320;28;20046;-62
2022/06/23 03:06:52;;;;;;;28.27;14.47;;;;;;;;;;4985725;28;20049;-62
2022/06/23 03:09:22;;;;;;;32.47;15.33;;;;;;;;;;4982959;28;20089;-62
2022/06/23 03:11:54;;;;;;;33.60;15.73;;;;;;;;;;4983277;28;20046;-62
2022/06/23 03:15:01;;;;;;;41.87;17.00;;;;;;;;;;4984139;28;20049;-62
2022/06/23 03:17:27;;;;;;;30.60;15.73;;;;;;;;;;4932347;28;20581;-61
2022/06/23 03:19:58;;;;;;;39.93;17.30;;;;;;;;;;4938394;29;20054;-63
2022/06/23 03:22:29;;;;;;;38.70;16.90;;;;;;;;;;4953453;28;20059;-62
2022/06/23 03:24:55;;;;;;;36.53;17.57;;;;;;;;;;4948856;28;20042;-61
2022/06/23 03:27:30;;;;;;;36.93;16.70;;;;;;;;;;4968185;28;20109;-62
2022/06/23 03:30:13;;;;;;;33.27;17.03;;;;;;;;;;4965651;28;20425;-62
2022/06/23 03:32:49;;;;;;;39.20;16.77;;;;;;;;;;4966389;28;20050;-62
2022/06/23 03:35:21;;;;;;;39.37;17.40;;;;;;;;;;4965797;28;20408;-63
2022/06/23 03:37:51;;;;;;;39.77;17.17;;;;;;;;;;4969257;28;20097;-62
2022/06/23 03:43:08;;;;;;;46.07;18.63;;;;;;;;;;4969448;28;20047;-62
2022/06/23 03:45:40;;;;;;;46.92;18.98;;;;;;;;;;4969449;28;20049;-61
2022/06/23 03:48:09;;;;;;;38.60;17.63;;;;;;;;;;4969245;28;20493;-61
2022/06/23 03:50:56;;;;;;;48.80;19.53;;;;;;;;;;4968538;28;20057;-62
2022/06/23 03:53:25;;;;;;;37.87;17.73;;;;;;;;;;4968738;28;20045;-61
2022/06/23 03:56:03;;;;;;;37.03;18.63;;;;;;;;;;4969026;28;20414;-62
2022/06/23 03:58:29;;;;;;;47.83;18.93;;;;;;;;;;4968021;28;20129;-61
2022/06/23 04:00:59;;;;;;;35.97;17.37;;;;;;;;;;4969424;28;20186;-62
2022/06/23 04:03:29;;;;;;;39.27;17.50;;;;;;;;;;4969385;28;20101;-61
2022/06/23 04:05:55;;;;;;;38.50;17.27;;;;;;;;;;4969170;28;20058;-61
2022/06/23 04:08:22;;;;;;;41.73;18.90;;;;;;;;;;4969517;28;20058;-61
2022/06/23 04:10:49;;;;;;;39.40;19.00;;;;;;;;;;4951700;28;20049;-62
2022/06/23 04:13:23;;;;;;;35.20;17.87;;;;;;;;;;4967722;28;20085;-62
2022/06/23 04:15:51;;;;;;;41.47;18.57;;;;;;;;;;4970237;28;20441;-61
2022/06/23 04:18:20;;;;;;;38.60;19.40;;;;;;;;;;4987752;28;20125;-61
2022/06/23 04:20:53;;;;;;;38.80;17.20;;;;;;;;;;4988766;28;20053;-61
2022/06/23 04:23:19;;;;;;;;;;;;;;;;;;4992106;28;20095;-62
2022/06/23 04:25:56;;;;;;;25.60;14.70;;;;;;;;;;4992120;28;20445;-62
2022/06/23 04:28:27;;;;;;;39.53;17.60;;;;;;;;;;4991842;28;20066;-61
2022/06/23 04:30:54;;;;;;;35.00;17.17;;;;;;;;;;4991953;28;20054;-62
2022/06/23 04:33:21;;;;;;;33.37;16.47;;;;;;;;;;4992069;28;20357;-62
2022/06/23 04:35:49;;;;;;;32.20;16.80;;;;;;;;;;4992187;28;20042;-62
2022/06/23 04:38:34;;;;;;;29.90;16.80;;;;;;;;;;4973010;28;20042;-62
2022/06/23 04:41:05;;;;;;;33.90;17.77;;;;;;;;;;4990055;28;20042;-62
2022/06/23 04:43:35;;;;;;;35.43;16.93;;;;;;;;;;4990364;28;20039;-61
2022/06/23 04:46:10;;;;;;;35.47;16.80;;;;;;;;;;4990454;28;20054;-61
2022/06/23 04:48:39;;;;;;;30.13;15.93;;;;;;;;;;4989445;28;20061;-61
2022/06/23 04:51:14;;;;;;;30.30;15.20;;;;;;;;;;4989767;28;20050;-62
2022/06/23 04:53:51;;;;;;;27.60;15.43;;;;;;;;;;4989268;28;20731;-61
2022/06/23 04:56:18;;;;;;;24.30;15.50;;;;;;;;;;4989044;28;20050;-61
2022/06/23 04:58:52;;;;;;;31.97;16.67;;;;;;;;;;4989889;28;20053;-61
2022/06/23 05:01:19;;;;;;;33.17;17.27;;;;;;;;;;4989405;28;20413;-61
2022/06/23 05:03:49;;;;;;;25.10;16.20;;;;;;;;;;4989856;28;20051;-62
2022/06/23 05:06:26;;;;;;;21.17;14.60;;;;;;;;;;4990798;28;20047;-62
2022/06/23 05:08:53;;;;;;;29.63;17.17;;;;;;;;;;4990907;28;20045;-62
2022/06/23 05:11:27;;;;;;;24.57;14.83;;;;;;;;;;4990141;28;20054;-62
2022/06/23 05:13:58;;;;;;;28.80;16.63;;;;;;;;;;4990306;28;20088;-62
2022/06/23 05:16:29;;;;;;;23.83;15.17;;;;;;;;;;4990379;28;20060;-63
2022/06/23 05:18:57;;;;;;;21.10;13.40;;;;;;;;;;4990697;28;20128;-63
2022/06/23 05:21:27;;;;;;;23.77;15.77;;;;;;;;;;4990353;28;20082;-62
2022/06/23 05:23:59;;;;;;;24.67;14.40;;;;;;;;;;4990451;28;20042;-62
2022/06/23 05:26:31;;;;;;;26.47;15.67;;;;;;;;;;4989897;28;20121;-62
2022/06/23 05:29:12;;;;;;;19.97;13.37;;;;;;;;;;4990333;28;20057;-63
2022/06/23 05:31:40;;;;;;;17.40;12.40;;;;;;;;;;4990003;28;20058;-63
2022/06/23 05:34:09;;;;;;;16.87;13.07;;;;;;;;;;4987939;28;20058;-63
2022/06/23 05:36:42;;;;;;;23.37;14.90;;;;;;;;;;4990272;28;20042;-62
2022/06/23 05:39:08;;;;;;;;;;;;;;;;;;4990488;28;20078;-63
2022/06/23 05:41:36;;;;;;;20.07;14.07;;;;;;;;;;4990426;28;19968;-62
2022/06/23 05:44:07;;;;;;;21.37;14.17;;;;;;;;;;4990358;28;20050;-62
2022/06/23 05:46:36;;;;;;;21.23;13.10;;;;;;;;;;4989983;28;20057;-63
2022/06/23 05:49:12;;;;;;;21.93;13.87;;;;;;;;;;4989579;28;20053;-63
2022/06/23 05:51:41;;;;;;;20.30;14.47;;;;;;;;;;4989637;28;20070;-63
2022/06/23 05:54:25;;;;;;;16.60;12.20;;;;;;;;;;4989908;28;20093;-63
2022/06/23 05:57:01;;;;;;;17.20;12.50;;;;;;;;;;4989518;28;20060;-62
2022/06/23 05:59:32;;;;;;;17.17;11.90;;;;;;;;;;4989584;28;20505;-63
2022/06/23 06:01:58;;;;;;;16.30;11.30;;;;;;;;;;4989910;28;20053;-62
2022/06/23 06:04:32;;;;;;;17.97;11.23;;;;;;;;;;4989199;28;20193;-63
2022/06/23 06:06:59;;;;;;;18.30;12.13;;;;;;;;;;4989969;28;20054;-63
2022/06/23 06:09:36;;;;;;;14.60;11.30;;;;;;;;;;4989359;28;20432;-63
2022/06/23 06:12:13;;;;;;;15.57;10.67;;;;;;;;;;4989668;28;20052;-62
2022/06/23 06:14:41;;;;;;;13.83;10.17;;;;;;;;;;4989542;28;20539;-63
2022/06/23 06:17:08;;;;;;;11.93;9.50;;;;;;;;;;4989021;28;20054;-63
2022/06/23 06:19:34;;;;;;;15.03;10.23;;;;;;;;;;4989559;28;20051;-63
2022/06/23 06:22:13;;;;;;;13.60;9.90;;;;;;;;;;4989110;28;20394;-63
2022/06/23 06:24:42;;;;;;;12.50;9.50;;;;;;;;;;4989395;28;20416;-63
2022/06/23 06:27:09;;;;;;;15.67;10.53;;;;;;;;;;4989423;28;20531;-63
2022/06/23 06:29:37;;;;;;;14.37;9.93;;;;;;;;;;4989111;28;20053;-63
2022/06/23 06:32:09;;;;;;;13.60;9.30;;;;;;;;;;4988735;28;20527;-63
2022/06/23 06:34:39;;;;;;;15.03;9.90;;;;;;;;;;4989177;28;20412;-63
2022/06/23 06:37:07;;;;;;;12.70;9.47;;;;;;;;;;4989183;28;20510;-62
2022/06/23 06:39:41;;;;;;;13.47;9.33;;;;;;;;;;4988577;28;20042;-63
2022/06/23 06:42:09;;;;;;;12.87;8.40;;;;;;;;;;4988652;28;20050;-62
2022/06/23 06:44:36;;;;;;;12.53;7.83;;;;;;;;;;4988674;28;20069;-62
2022/06/23 06:47:03;;;;;;;16.63;7.83;;;;;;;;;;4988800;28;20042;-63
2022/06/23 06:49:30;;;;;;;11.37;8.30;;;;;;;;;;4988498;28;20592;-63
2022/06/23 06:51:57;;;;;;;10.57;7.90;;;;;;;;;;4988748;28;20390;-63
2022/06/23 06:54:26;;;;;;;10.97;7.60;;;;;;;;;;4988346;28;20042;-62
2022/06/23 06:56:57;;;;;;;11.33;7.47;;;;;;;;;;4988764;28;20050;-63
2022/06/23 06:59:33;;;;;;;11.43;6.53;;;;;;;;;;4988457;28;20045;-63
2022/06/23 07:02:02;;;;;;;8.17;5.27;;;;;;;;;;4988354;28;20463;-63
2022/06/23 07:04:34;;;;;;;9.00;6.27;;;;;;;;;;4988637;28;20774;-62
2022/06/23 07:07:02;;;;;;;8.67;5.23;;;;;;;;;;4988633;28;20046;-63
2022/06/23 07:09:39;;;;;;;8.80;6.63;;;;;;;;;;4988602;28;20043;-63
2022/06/23 07:12:08;;;;;;;14.93;6.07;;;;;;;;;;4988591;28;20062;-63
2022/06/23 07:14:37;;;;;;;9.10;5.37;;;;;;;;;;4988596;28;20092;-62
2022/06/23 07:17:12;;;;;;;8.97;6.10;;;;;;;;;;4988162;28;20069;-62
2022/06/23 07:19:41;;;;;;;7.47;5.50;;;;;;;;;;4988472;28;20050;-63
2022/06/23 07:22:10;;;;;;;7.57;5.60;;;;;;;;;;4988069;28;20051;-63
2022/06/23 07:24:51;;;;;;;9.00;4.97;;;;;;;;;;4988167;28;20181;-64
2022/06/23 07:27:17;;;;;;;6.90;5.03;;;;;;;;;;4988525;28;20057;-63
2022/06/23 07:29:49;;;;;;;7.03;4.43;;;;;;;;;;4988140;28;20420;-64
2022/06/23 07:32:19;;;;;;;8.53;4.97;;;;;;;;;;4988249;28;20046;-63
2022/06/23 07:34:51;;;;;;;9.90;4.57;;;;;;;;;;4988129;28;20086;-63
2022/06/23 07:37:17;;;;;;;4.93;3.57;;;;;;;;;;4987980;28;20389;-63
2022/06/23 07:39:43;;;;;;;7.07;4.00;;;;;;;;;;4987813;28;20052;-63
2022/06/23 07:42:26;;;;;;;6.87;3.60;;;;;;;;;;4988166;28;20088;-63
2022/06/23 07:44:58;;;;;;;9.27;4.07;;;;;;;;;;4988337;28;20042;-62
2022/06/23 07:47:24;;;;;;;8.87;4.50;;;;;;;;;;4988170;28;20412;-63
2022/06/23 07:49:50;;;;;;;6.37;3.50;;;;;;;;;;4988105;28;20058;-62
2022/06/23 07:52:18;;;;;;;8.63;3.90;;;;;;;;;;4988143;28;20050;-61
2022/06/23 07:54:44;;;;;;;7.43;3.60;;;;;;;;;;4988005;28;20109;-62
2022/06/23 07:57:14;;;;;;;11.43;4.47;;;;;;;;;;4989479;28;20411;-62
2022/06/23 07:59:44;;;;;;;6.10;3.63;;;;;;;;;;4992121;28;20053;-62
2022/06/23 08:02:15;;;;;;;8.17;3.83;;;;;;;;;;4991938;28;20125;-62
2022/06/23 08:04:52;;;;;;;6.50;3.33;;;;;;;;;;4991899;28;20054;-62
2022/06/23 08:07:18;;;;;;;7.60;3.40;;;;;;;;;;4991903;28;20050;-62
2022/06/23 08:09:50;;;;;;;4.97;3.43;;;;;;;;;;4991870;28;20404;-62
2022/06/23 08:18:01;;;;;;;7.28;3.30;;;;;;;;;;4991705;28;20386;-62
2022/06/23 08:20:30;;;;;;;9.25;3.22;;;;;;;;;;4990793;28;20046;-62
2022/06/23 08:22:56;;;;;;;4.72;2.90;;;;;;;;;;4991051;28;20775;-59
2022/06/23 08:25:22;;;;;;;9.90;3.20;;;;;;;;;;4991266;28;20047;-59
2022/06/23 08:27:52;;;;;;;6.50;3.97;;;;;;;;;;4991169;28;20046;-59
2022/06/23 08:30:18;;;;;;;9.05;3.30;;;;;;;;;;4991382;28;20054;-59
2022/06/23 08:32:48;;;;;;;7.97;2.80;;;;;;;;;;4991173;28;20043;-60
2022/06/23 08:35:23;;;;;;;6.28;3.08;;;;;;;;;;4991133;28;20042;-59
2022/06/23 08:37:53;;;;;;;4.70;2.92;;;;;;;;;;4991378;28;20058;-60
2022/06/23 08:40:38;;;;;;;8.10;2.65;;;;;;;;;;4991149;28;20042;-60
2022/06/23 08:43:10;;;;;;;6.63;2.78;;;;;;;;;;4990872;28;20142;-60
2022/06/23 08:45:36;;;;;;;7.05;2.67;;;;;;;;;;4991235;28;20042;-61
2022/06/23 08:48:05;;;;;;;4.53;2.67;;;;;;;;;;4990651;28;20045;-60
2022/06/23 08:50:40;;;;;;;7.95;2.80;;;;;;;;;;4990523;28;20165;-60
2022/06/23 08:53:29;;;;;;;6.38;2.80;;;;;;;;;;4991044;28;20046;-60
2022/06/23 08:56:08;;;;;;;5.35;2.33;;;;;;;;;;4965962;28;20930;-60
2022/06/23 08:58:37;;;;;;;6.35;3.20;;;;;;;;;;4990660;28;20108;-60
2022/06/23 09:01:07;;;;;;;6.00;2.70;;;;;;;;;;4990856;28;20046;-60
2022/06/23 09:03:51;;;;;;;3.13;2.30;;;;;;;;;;4990664;28;20104;-61
2022/06/23 09:06:31;;;;;;;6.85;2.50;;;;;;;;;;4990661;28;20046;-60
2022/06/23 09:09:03;;;;;;;6.00;3.05;;;;;;;;;;4989340;28;20523;-61
2022/06/23 09:11:51;;;;;;;6.45;3.47;;;;;;;;;;4990655;28;20513;-61
2022/06/23 09:14:29;;;;;;;4.57;2.13;;;;;;;;;;4990604;28;20093;-60
2022/06/23 09:16:55;;;;;;;4.50;2.67;;;;;;;;;;4990604;28;20058;-61
2022/06/23 09:19:30;;;;;;;8.27;2.88;;;;;;;;;;4972540;28;20062;-62
2022/06/23 09:22:15;;;;;;;8.55;2.72;;;;;;;;;;4990751;28;20081;-61
2022/06/23 09:24:57;;;;;;;6.95;2.95;;;;;;;;;;4990652;28;20057;-61
2022/06/23 09:27:33;;;;;;;5.25;2.47;;;;;;;;;;4990400;28;20065;-61
2022/06/23 09:30:16;;;;;;;7.32;2.60;;;;;;;;;;4990156;28;20054;-61
2022/06/23 09:32:42;;;;;;;5.13;2.58;;;;;;;;;;4990317;28;20046;-62
2022/06/23 09:35:20;;;;;;;6.25;2.80;;;;;;;;;;4990075;28;20540;-62
2022/06/23 09:37:49;;;;;;;6.70;2.30;;;;;;;;;;4990085;28;20145;-62
2022/06/23 09:40:18;;;;;;;4.15;2.60;;;;;;;;;;4989797;28;20054;-62
2022/06/23 09:42:47;;;;;;;6.20;2.80;;;;;;;;;;4990083;28;20072;-61
2022/06/23 09:45:36;;;;;;;4.60;2.42;;;;;;;;;;4989548;28;20519;-61
2022/06/23 09:48:02;;;;;;;9.88;3.70;;;;;;;;;;4989908;28;20093;-62
2022/06/23 09:50:38;;;;;;;7.20;3.05;;;;;;;;;;4989869;28;20046;-61
2022/06/23 09:53:07;;;;;;;6.07;2.70;;;;;;;;;;4989580;28;20090;-61
2022/06/23 09:55:39;;;;;;;5.80;2.42;;;;;;;;;;4972497;28;20455;-62
2022/06/23 09:58:24;;;;;;;4.25;2.50;;;;;;;;;;4989953;28;20053;-61
2022/06/23 10:00:52;;;;;;;6.15;2.80;;;;;;;;;;4989726;28;20501;-61
2022/06/23 10:03:37;;;;;;;8.25;2.95;;;;;;;;;;4989843;28;20059;-62
2022/06/23 10:06:09;;;;;;;6.72;2.55;;;;;;;;;;4989555;28;20058;-61
2022/06/23 10:08:35;;;;;;;4.85;2.28;;;;;;;;;;4989804;28;20050;-61
2022/06/23 10:11:13;;;;;;;4.90;2.50;;;;;;;;;;4989680;28;20061;-61
2022/06/23 10:13:48;;;;;;;10.32;2.38;;;;;;;;;;4989734;28;20050;-61
2022/06/23 10:16:26;;;;;;;6.20;2.50;;;;;;;;;;4989219;28;20058;-62
2022/06/23 10:19:03;;;;;;;6.22;2.55;;;;;;;;;;4989341;28;20062;-62
2022/06/23 10:21:49;;;;;;;5.75;2.75;;;;;;;;;;4988886;28;20042;-61
2022/06/23 10:24:15;;;;;;;4.65;2.45;;;;;;;;;;4989143;28;20554;-61
2022/06/23 10:26:41;;;;;;;4.57;2.42;;;;;;;;;;4989299;28;20050;-62
2022/06/23 10:29:20;;;;;;;4.63;2.00;;;;;;;;;;4989007;28;20042;-62
2022/06/23 10:31:54;;;;;;;5.35;2.60;;;;;;;;;;4989165;28;20105;-62
2022/06/23 10:34:33;;;;;;;5.13;2.67;;;;;;;;;;4989085;28;20504;-62
2022/06/23 10:37:08;;;;;;;4.35;2.08;;;;;;;;;;4989228;28;20046;-62
2022/06/23 10:39:46;;;;;;;3.70;2.60;;;;;;;;;;4989081;28;20054;-63
2022/06/23 10:42:12;;;;;;;7.85;2.50;;;;;;;;;;4988566;28;20078;-62
2022/06/23 10:45:01;;;;;;;4.78;2.65;;;;;;;;;;4988695;28;20128;-62
2022/06/23 10:47:39;;;;;;;8.30;2.42;;;;;;;;;;4952293;28;20160;-62
2022/06/23 10:50:24;;;;;;;5.35;2.55;;;;;;;;;;4988925;28;20047;-62
2022/06/23 10:53:01;;;;;;;8.05;2.92;;;;;;;;;;4988852;28;20092;-62
2022/06/23 10:55:28;;;;;;;7.13;2.78;;;;;;;;;;4988488;28;20050;-62
2022/06/23 10:58:00;;;;;;;4.85;2.25;;;;;;;;;;4988817;28;20815;-62
2022/06/23 11:00:26;;;;;;;;;;;;;;;;;;4989134;28;20050;-62
2022/06/23 11:03:07;;;;;;;5.22;2.50;;;;;;;;;;4988258;28;19928;-62
2022/06/23 11:05:33;;;;;;;4.18;2.10;;;;;;;;;;4988566;28;20042;-62
2022/06/23 11:08:02;;;;;;;5.07;2.03;;;;;;;;;;4988872;28;20559;-62
2022/06/23 11:10:38;;;;;;;5.93;2.20;;;;;;;;;;4988244;28;20125;-62
2022/06/23 11:13:22;;;;;;;8.75;2.45;;;;;;;;;;4987651;28;20464;-61
2022/06/23 11:15:58;;;;;;;3.83;2.15;;;;;;;;;;4984344;28;20034;-61
2022/06/23 11:18:42;;;;;;;4.75;2.08;;;;;;;;;;4988781;28;20054;-62
2022/06/23 11:21:23;;;;;;;3.30;1.85;;;;;;;;;;4985100;28;20046;-61
2022/06/23 11:23:59;;;;;;;8.38;1.98;;;;;;;;;;4985599;28;20138;-62
2022/06/23 11:26:43;;;;;;;5.80;1.92;;;;;;;;;;4987739;28;20035;-61
2022/06/23 11:29:28;;;;;;;4.35;1.80;;;;;;;;;;4985437;28;20786;-61
2022/06/23 11:31:57;;;;;;;5.57;2.10;;;;;;;;;;4987086;28;20106;-62
2022/06/23 11:34:42;;;;;;;5.78;1.90;;;;;;;;;;4991301;28;20045;-61
2022/06/23 11:37:19;;;;;;;4.57;1.83;;;;;;;;;;4989368;28;20045;-61
2022/06/23 11:40:02;;;;;;;3.78;1.60;;;;;;;;;;4991739;28;20093;-61
2022/06/23 11:42:40;;;;;;;7.82;1.67;;;;;;;;;;4988512;28;20089;-62
2022/06/23 11:45:09;;;;;;;2.97;1.45;;;;;;;;;;4991366;28;20452;-61
2022/06/23 11:47:57;;;;;;;3.30;1.42;;;;;;;;;;4991688;28;20054;-61
2022/06/23 11:50:36;;;;;;;4.82;1.30;;;;;;;;;;4990839;28;20042;-62
2022/06/23 11:53:08;;;;;;;2.40;1.30;;;;;;;;;;4989450;28;20123;-61
2022/06/23 11:55:42;;;;;;;3.53;1.52;;;;;;;;;;4991214;28;20091;-62
2022/06/23 11:58:14;;;;;;;7.65;1.83;;;;;;;;;;4990965;28;20042;-62
2022/06/23 12:00:43;;;;;;;6.10;1.40;;;;;;;;;;4988750;28;20042;-62
2022/06/23 12:03:15;;;;;;;5.40;1.33;;;;;;;;;;4990880;28;20050;-62
2022/06/23 12:05:41;;;;;;;4.55;1.60;;;;;;;;;;4989154;28;20097;-62
2022/06/23 12:08:15;;;;;;;3.97;1.20;;;;;;;;;;4990719;28;20085;-62
2022/06/23 12:10:41;;;;;;;3.38;1.75;;;;;;;;;;4988907;28;20524;-62
2022/06/23 12:13:07;;;;;;;2.67;1.30;;;;;;;;;;4990374;28;20053;-62
2022/06/23 12:15:37;;;;;;;7.05;1.38;;;;;;;;;;4990749;28;20408;-63
2022/06/23 12:18:09;;;;;;;4.50;1.58;;;;;;;;;;4988829;28;20054;-62
2022/06/23 12:20:54;;;;;;;3.97;1.55;;;;;;;;;;4990717;28;20051;-62
2022/06/23 12:23:30;;;;;;;3.05;1.70;;;;;;;;;;4987738;28;20073;-62
2022/06/23 12:26:15;;;;;;;4.22;1.90;;;;;;;;;;4990294;28;20038;-62
2022/06/23 12:28:46;;;;;;;6.60;1.42;;;;;;;;;;4988281;28;20456;-62
2022/06/23 12:31:31;;;;;;;4.50;1.52;;;;;;;;;;4990417;28;20118;-62
2022/06/23 12:34:17;;;;;;;4.80;1.27;;;;;;;;;;4990110;28;20401;-62
2022/06/23 12:36:43;;;;;;;6.75;1.88;;;;;;;;;;4988660;28;20310;-63
2022/06/23 12:39:16;;;;;;;6.63;1.70;;;;;;;;;;4990668;28;20121;-62
2022/06/23 12:41:46;;;;;;;4.32;1.60;;;;;;;;;;4987919;28;20054;-62
2022/06/23 12:44:18;;;;;;;5.35;1.92;;;;;;;;;;4990158;28;20050;-62
2022/06/23 12:46:53;;;;;;;4.10;1.52;;;;;;;;;;4990215;28;20046;-62
2022/06/23 12:49:25;;;;;;;5.40;2.05;;;;;;;;;;4990134;28;20122;-62
2022/06/23 12:52:03;;;;;;;2.65;1.70;;;;;;;;;;4990124;28;20046;-62
2022/06/23 12:54:29;;;;;;;9.07;1.77;;;;;;;;;;4988343;28;20077;-62
2022/06/23 12:57:06;;;;;;;6.30;1.58;;;;;;;;;;4989947;28;20531;-62
2022/06/23 12:59:41;;;;;;;5.68;1.40;;;;;;;;;;4988797;28;20054;-62
2022/06/23 13:02:12;;;;;;;3.85;1.70;;;;;;;;;;4986597;28;20417;-62
2022/06/23 13:04:47;;;;;;;5.13;1.58;;;;;;;;;;4988702;28;20057;-62
2022/06/23 13:07:18;;;;;;;2.63;1.50;;;;;;;;;;4987968;28;20744;-62
2022/06/23 13:09:56;;;;;;;2.78;1.27;;;;;;;;;;4986283;28;20129;-62
2022/06/23 13:12:45;;;;;;;3.63;1.40;;;;;;;;;;4986526;28;20153;-63
2022/06/23 13:15:15;;;;;;;3.40;1.45;;;;;;;;;;4987384;28;20046;-62
2022/06/23 13:17:44;;;;;;;3.83;1.50;;;;;;;;;;4986057;28;20058;-62
2022/06/23 13:20:28;;;;;;;3.67;1.73;;;;;;;;;;4989648;28;20042;-62
2022/06/23 13:22:59;;;;;;;6.90;1.55;;;;;;;;;;4989349;28;20090;-62
2022/06/23 13:25:25;;;;;;;;;;;;;;;;;;4987830;28;20038;-62
2022/06/23 13:27:52;;;;;;;3.50;1.45;;;;;;;;;;4989221;28;20627;-62
2022/06/23 13:30:20;;;;;;;7.70;1.70;;;;;;;;;;4989233;28;20440;-62
2022/06/23 13:33:04;;;;;;;5.93;1.58;;;;;;;;;;4988642;28;20054;-62
2022/06/23 13:35:35;;;;;;;4.00;1.70;;;;;;;;;;4990154;28;20508;-62
2022/06/23 13:38:01;;;;;;;;;;;;;;;;;;4991005;28;20050;-62
2022/06/23 13:40:30;;;;;;;6.43;1.70;;;;;;;;;;4989570;28;20299;-62
2022/06/23 13:43:08;;;;;;;3.45;1.73;;;;;;;;;;4989386;28;20057;-62
2022/06/23 13:45:46;;;;;;;3.30;2.00;;;;;;;;;;4989800;28;20050;-62
2022/06/23 13:48:15;;;;;;;4.80;1.83;;;;;;;;;;4989351;28;20460;-62
2022/06/23 13:50:47;;;;;;;4.82;1.63;;;;;;;;;;4989674;28;20046;-62
2022/06/23 13:53:32;;;;;;;5.30;1.70;;;;;;;;;;4989598;28;20728;-62
2022/06/23 13:55:58;;;;;;;3.78;1.77;;;;;;;;;;4991934;28;20684;-61
2022/06/23 13:58:29;;;;;;;4.00;1.60;;;;;;;;;;4989480;28;20126;-61
2022/06/23 14:01:02;;;;;;;3.33;1.60;;;;;;;;;;4989745;28;20060;-61
2022/06/23 14:03:28;;;;;;;6.07;1.98;;;;;;;;;;4989370;28;20053;-61
2022/06/23 14:06:00;;;;;;;2.88;2.17;;;;;;;;;;4989935;28;20039;-62
2022/06/23 14:08:33;;;;;;;3.70;1.85;;;;;;;;;;4989237;28;20054;-62
2022/06/23 14:11:17;;;;;;;4.57;1.90;;;;;;;;;;4989256;28;20145;-62
2022/06/23 14:13:57;;;;;;;5.60;2.00;;;;;;;;;;4989267;28;20638;-61
2022/06/23 14:16:27;;;;;;;3.78;1.70;;;;;;;;;;4989155;28;20505;-61
2022/06/23 14:19:01;;;;;;;4.05;1.90;;;;;;;;;;4988856;28;20050;-62
2022/06/23 14:21:36;;;;;;;5.43;2.00;;;;;;;;;;4987615;28;20097;-62
2022/06/23 14:24:03;;;;;;;6.82;1.80;;;;;;;;;;4989074;28;20123;-61
2022/06/23 14:26:32;;;;;;;5.80;2.17;;;;;;;;;;4988769;28;20605;-61
2022/06/23 14:29:06;;;;;;;4.95;1.67;;;;;;;;;;4988831;28;20042;-61
2022/06/23 14:31:35;;;;;;;3.40;1.80;;;;;;;;;;4988955;28;20058;-61
2022/06/23 14:34:07;;;;;;;4.35;1.70;;;;;;;;;;4988325;28;20038;-61
2022/06/23 14:36:47;;;;;;;5.10;2.00;;;;;;;;;;4988402;28;20129;-61
2022/06/23 14:39:13;;;;;;;4.45;2.03;;;;;;;;;;4987325;28;20052;-61
2022/06/23 14:41:52;;;;;;;3.70;1.88;;;;;;;;;;4988094;28;20050;-61
2022/06/23 14:44:47;;;;;;;3.20;1.75;;;;;;;;;;4987532;28;20523;-62
2022/06/23 14:47:14;;;;;;;8.55;1.95;;;;;;;;;;4939835;28;20517;-61
2022/06/23 14:49:52;;;;;;;7.65;2.38;;;;;;;;;;4987907;28;20054;-61
2022/06/23 14:52:37;;;;;;;3.63;1.90;;;;;;;;;;4988100;28;20074;-61
2022/06/23 14:55:09;;;;;;;3.53;2.20;;;;;;;;;;4985685;28;20053;-61
2022/06/23 14:57:44;;;;;;;5.15;2.10;;;;;;;;;;4987880;28;20057;-61
2022/06/23 15:00:16;;;;;;;5.60;2.40;;;;;;;;;;4986405;28;20413;-61
2022/06/23 15:02:47;;;;;;;7.90;2.55;;;;;;;;;;4985591;28;20047;-61
2022/06/23 15:05:13;;;;;;;4.88;2.03;;;;;;;;;;4987913;28;20042;-61
2022/06/23 15:07:44;;;;;;;3.30;2.00;;;;;;;;;;4987784;28;20054;-61
2022/06/23 15:10:20;;;;;;;8.13;2.38;;;;;;;;;;4987675;28;20050;-61
2022/06/23 15:12:47;;;;;;;4.53;1.90;;;;;;;;;;4985804;28;20551;-62
2022/06/23 15:15:18;;;;;;;5.30;2.03;;;;;;;;;;4987718;28;20046;-61
2022/06/23 15:18:02;;;;;;;5.47;1.75;;;;;;;;;;4985375;28;20062;-61